createdAt,value
2019-04-18T00:01:34.535Z,99.90
2019-04-18T00:04:18.965Z,99.90
2019-04-18T00:06:48.112Z,99.90
2019-04-18T00:09:17.160Z,99.90
2019-04-18T00:11:47.118Z,99.90
2019-04-18T00:14:35.719Z,99.90
2019-04-18T00:16:47.956Z,99.90
2019-04-18T00:19:16.912Z,99.90
2019-04-18T00:21:49.225Z,99.90
2019-04-18T00:24:16.825Z,99.90
2019-04-18T00:26:45.654Z,99.90
2019-04-18T00:29:14.747Z,99.90
2019-04-18T00:31:43.709Z,99.90
2019-04-18T00:34:16.032Z,99.90
2019-04-18T00:36:43.506Z,99.90
2019-04-18T00:39:12.541Z,99.90
2019-04-18T00:41:41.573Z,99.90
2019-04-18T00:44:14.135Z,99.90
2019-04-18T00:46:46.080Z,99.90
2019-04-18T00:49:13.763Z,99.90
2019-04-18T00:51:43.990Z,99.90
2019-04-18T00:54:13.393Z,99.90
2019-04-18T00:56:42.368Z,99.90
2019-04-18T00:59:11.457Z,99.90
2019-04-18T01:01:41.831Z,99.90
2019-04-18T01:04:25.792Z,99.90
2019-04-18T01:06:42.164Z,99.90
2019-04-18T01:09:12.801Z,99.90
2019-04-18T01:11:41.780Z,99.90
2019-04-18T01:14:15.446Z,99.90
2019-04-18T01:16:41.441Z,99.90
2019-04-18T01:19:10.354Z,99.90
2019-04-18T01:21:39.343Z,99.90
2019-04-18T01:24:08.761Z,99.90
2019-04-18T01:26:37.772Z,99.90
2019-04-18T01:29:06.838Z,99.90
2019-04-18T01:31:35.794Z,99.90
2019-04-18T01:34:06.481Z,99.90
2019-04-18T01:36:35.616Z,99.90
2019-04-18T01:39:26.688Z,99.90
2019-04-18T01:42:17.536Z,99.90
2019-04-18T01:45:00.238Z,99.90
2019-04-18T01:47:29.141Z,99.90
2019-04-18T01:49:58.128Z,99.90
2019-04-18T01:52:27.763Z,99.90
2019-04-18T01:54:56.766Z,99.90
2019-04-18T01:57:27.655Z,99.90
2019-04-18T01:59:56.487Z,99.90
2019-04-18T02:02:26.928Z,99.90
2019-04-18T02:05:01.869Z,99.90
2019-04-18T02:07:27.109Z,99.90
2019-04-18T02:09:57.288Z,99.90
2019-04-18T02:12:26.384Z,99.90
2019-04-18T02:14:58.450Z,99.90
2019-04-18T02:17:26.173Z,99.90
2019-04-18T02:19:56.930Z,99.90
2019-04-18T02:22:25.844Z,99.90
2019-04-18T02:24:54.885Z,99.90
2019-04-18T02:27:26.577Z,99.90
2019-04-18T02:29:54.466Z,99.90
2019-04-18T02:32:23.352Z,99.90
2019-04-18T02:34:53.210Z,99.90
2019-04-18T02:37:22.351Z,99.90
2019-04-18T02:39:51.317Z,99.90
2019-04-18T02:42:20.267Z,99.90
2019-04-18T02:44:49.247Z,99.90
2019-04-18T02:47:19.343Z,99.90
2019-04-18T02:49:51.201Z,99.90
2019-04-18T02:52:20.816Z,99.90
2019-04-18T02:54:51.213Z,99.90
2019-04-18T02:57:20.235Z,99.90
2019-04-18T03:00:00.650Z,99.90
2019-04-18T03:02:37.583Z,99.90
2019-04-18T03:05:12.654Z,99.90
2019-04-18T03:07:41.603Z,99.90
2019-04-18T03:10:12.735Z,99.90
2019-04-18T03:12:41.285Z,99.90
2019-04-18T03:15:12.905Z,99.90
2019-04-18T03:17:41.061Z,99.90
2019-04-18T03:20:10.063Z,99.90
2019-04-18T03:22:38.946Z,99.90
2019-04-18T03:25:07.921Z,99.90
2019-04-18T03:27:36.812Z,99.90
2019-04-18T03:30:05.968Z,99.90
2019-04-18T03:32:37.017Z,99.90
2019-04-18T03:35:07.049Z,99.90
2019-04-18T03:37:37.465Z,99.90
2019-04-18T03:40:07.353Z,99.90
2019-04-18T03:42:36.420Z,99.90
2019-04-18T03:45:14.495Z,99.90
2019-04-18T03:47:46.882Z,99.90
2019-04-18T03:50:18.136Z,99.90
2019-04-18T03:52:46.475Z,99.90
2019-04-18T03:55:16.866Z,99.90
2019-04-18T03:57:46.105Z,99.90
2019-04-18T04:00:15.130Z,99.90
2019-04-18T04:02:44.096Z,99.90
2019-04-18T04:05:13.058Z,99.90
2019-04-18T04:07:42.065Z,99.90
2019-04-18T04:10:12.909Z,99.90
2019-04-18T04:12:41.710Z,99.90
2019-04-18T04:15:15.829Z,99.90
2019-04-18T04:17:55.292Z,99.90
2019-04-18T04:20:25.958Z,99.90
2019-04-18T04:22:55.600Z,99.90
2019-04-18T04:25:24.524Z,99.90
2019-04-18T04:27:54.577Z,99.90
2019-04-18T04:30:24.104Z,99.90
2019-04-18T04:32:53.155Z,99.90
2019-04-18T04:35:22.110Z,99.90
2019-04-18T04:37:51.054Z,99.90
2019-04-18T04:40:20.008Z,99.90
2019-04-18T04:42:51.821Z,99.90
2019-04-18T04:45:19.796Z,99.90
2019-04-18T04:47:58.248Z,99.90
2019-04-18T04:51:33.121Z,99.90
2019-04-18T04:54:30.774Z,99.90
2019-04-18T04:57:05.358Z,99.90
2019-04-18T04:59:38.818Z,99.90
2019-04-18T05:02:08.807Z,99.90
2019-04-18T05:04:37.661Z,99.90
2019-04-18T05:07:06.665Z,99.90
2019-04-18T05:09:38.922Z,99.90
2019-04-18T05:12:06.393Z,99.90
2019-04-18T05:14:35.742Z,99.90
2019-04-18T05:17:06.722Z,99.90
2019-04-18T05:19:35.701Z,99.90
2019-04-18T05:22:04.771Z,99.90
2019-04-18T05:24:33.837Z,99.90
2019-04-18T05:27:02.817Z,99.90
2019-04-18T05:29:32.756Z,99.90
2019-04-18T05:32:02.717Z,99.90
2019-04-18T05:34:31.703Z,99.90
2019-04-18T05:37:00.580Z,99.90
2019-04-18T05:39:30.643Z,99.90
2019-04-18T05:42:00.345Z,99.90
2019-04-18T05:44:31.546Z,99.90
2019-04-18T05:47:07.756Z,99.90
2019-04-18T05:49:41.238Z,99.90
2019-04-18T05:52:35.512Z,99.90
2019-04-18T05:55:07.723Z,99.90
2019-04-18T05:57:36.592Z,99.90
2019-04-18T06:00:31.523Z,99.90
2019-04-18T06:03:06.488Z,99.90
2019-04-18T06:05:57.454Z,99.90
2019-04-18T06:08:31.636Z,99.90
2019-04-18T06:11:02.057Z,99.90
2019-04-18T06:13:32.769Z,99.90
2019-04-18T06:16:21.481Z,99.90
2019-04-18T06:19:20.041Z,99.90
2019-04-18T06:22:05.694Z,99.90
2019-04-18T06:24:53.414Z,99.90
2019-04-18T06:27:39.994Z,99.90
2019-04-18T06:30:26.750Z,99.90
2019-04-18T06:33:21.913Z,99.90
2019-04-18T06:35:51.644Z,99.90
2019-04-18T06:38:20.703Z,99.90
2019-04-18T06:40:49.888Z,99.90
2019-04-18T06:43:24.082Z,99.90
2019-04-18T06:45:49.744Z,99.90
2019-04-18T06:48:18.997Z,99.90
2019-04-18T06:50:48.088Z,99.90
2019-04-18T06:53:19.733Z,99.90
2019-04-18T06:55:47.681Z,99.90
2019-04-18T06:58:32.617Z,99.90
2019-04-18T07:00:47.354Z,99.90
2019-04-18T07:03:17.052Z,99.90
2019-04-18T07:05:47.202Z,99.90
2019-04-18T07:08:26.221Z,99.90
2019-04-18T07:11:03.864Z,99.90
2019-04-18T07:13:42.421Z,99.90
2019-04-18T07:16:12.654Z,99.90
2019-04-18T07:18:42.253Z,99.90
2019-04-18T07:21:16.699Z,99.90
2019-04-18T07:23:46.148Z,99.90
2019-04-18T07:26:15.199Z,99.90
2019-04-18T07:28:49.673Z,99.90
2019-04-18T07:31:22.730Z,99.90
2019-04-18T07:33:45.884Z,99.90
2019-04-18T07:36:14.941Z,99.90
2019-04-18T07:38:43.912Z,99.90
2019-04-18T07:41:17.564Z,99.90
2019-04-18T07:43:43.632Z,99.90
2019-04-18T07:46:14.549Z,99.90
2019-04-18T07:48:43.615Z,99.90
2019-04-18T07:51:12.729Z,99.90
2019-04-18T07:53:41.692Z,99.90
2019-04-18T07:56:12.733Z,99.90
2019-04-18T07:58:41.645Z,99.90
2019-04-18T08:01:12.720Z,99.90
2019-04-18T08:03:48.872Z,99.90
2019-04-18T08:06:19.090Z,99.90
2019-04-18T08:08:43.425Z,99.90
2019-04-18T08:11:12.403Z,99.90
2019-04-18T08:13:41.352Z,99.90
2019-04-18T08:16:10.447Z,99.90
2019-04-18T08:18:41.900Z,99.90
2019-04-18T08:21:10.152Z,99.90
2019-04-18T08:23:40.069Z,99.90
2019-04-18T08:26:09.319Z,99.90
2019-04-18T08:28:38.328Z,99.90
2019-04-18T08:31:07.341Z,99.90
2019-04-18T08:33:36.361Z,99.90
2019-04-18T08:36:11.845Z,99.90
2019-04-18T08:38:51.364Z,99.90
2019-04-18T08:41:27.227Z,99.90
2019-04-18T08:44:21.882Z,99.90
2019-04-18T08:46:48.460Z,99.90
2019-04-18T08:49:25.332Z,99.20
2019-04-18T08:52:15.336Z,97.10
2019-04-18T08:54:51.661Z,98.70
2019-04-18T08:57:24.943Z,99.70
2019-04-18T08:59:53.031Z,98.90
2019-04-18T09:02:23.957Z,98.40
2019-04-18T09:04:54.678Z,99.20
2019-04-18T09:07:24.165Z,97.60
2019-04-18T09:09:54.439Z,97.30
2019-04-18T09:12:24.000Z,98.30
2019-04-18T09:14:53.403Z,95.90
2019-04-18T09:17:22.933Z,96.50
2019-04-18T09:20:08.882Z,96.70
2019-04-18T09:22:28.464Z,96.10
2019-04-18T09:24:53.641Z,95.90
2019-04-18T09:27:23.777Z,94.90
2019-04-18T09:29:54.672Z,95.60
2019-04-18T09:32:23.904Z,95.00
2019-04-18T09:34:54.055Z,94.60
2019-04-18T09:37:23.120Z,95.90
2019-04-18T09:39:52.157Z,93.20
2019-04-18T09:42:21.127Z,92.80
2019-04-18T09:44:53.840Z,93.90
2019-04-18T09:47:22.085Z,94.70
2019-04-18T09:49:51.187Z,95.10
2019-04-18T09:52:21.312Z,91.60
2019-04-18T09:54:50.357Z,90.20
2019-04-18T09:57:19.340Z,90.70
2019-04-18T09:59:48.547Z,90.00
2019-04-18T10:02:18.196Z,89.50
2019-04-18T10:04:50.449Z,90.40
2019-04-18T10:07:17.916Z,90.00
2019-04-18T10:09:46.933Z,90.00
2019-04-18T10:12:15.922Z,90.60
2019-04-18T10:20:44.888Z,84.30
2019-04-18T10:23:27.335Z,84.70
2019-04-18T10:26:27.109Z,80.50
2019-04-18T10:29:07.573Z,87.50
2019-04-18T10:31:48.549Z,82.20
2019-04-18T10:34:29.904Z,80.00
2019-04-18T10:37:11.355Z,80.60
2019-04-18T10:39:52.562Z,81.60
2019-04-18T10:42:33.107Z,81.70
2019-04-18T10:45:14.802Z,79.70
2019-04-18T10:47:55.188Z,81.30
2019-04-18T10:50:36.128Z,81.60
2019-04-18T10:53:17.873Z,81.30
2019-04-18T10:55:58.992Z,78.40
2019-04-18T10:58:39.561Z,79.80
2019-04-18T11:01:20.666Z,76.10
2019-04-18T11:04:15.561Z,78.00
2019-04-18T11:06:44.623Z,77.00
2019-04-18T11:09:25.479Z,78.70
2019-04-18T11:12:06.852Z,77.10
2019-04-18T11:14:47.400Z,73.30
2019-04-18T11:17:27.882Z,73.40
2019-04-18T11:20:09.226Z,76.00
2019-04-18T11:22:50.161Z,74.40
2019-04-18T11:25:31.002Z,76.00
2019-04-18T11:28:12.351Z,75.60
2019-04-18T11:30:59.423Z,72.40
2019-04-18T11:33:35.313Z,72.30
2019-04-18T11:36:17.197Z,73.60
2019-04-18T11:38:57.860Z,72.10
2019-04-18T11:41:38.343Z,72.20
2019-04-18T11:44:18.991Z,70.80
2019-04-18T11:47:00.238Z,70.40
2019-04-18T11:49:41.373Z,69.30
2019-04-18T11:52:22.809Z,70.40
2019-04-18T11:55:04.058Z,73.20
2019-04-18T11:57:44.811Z,62.30
2019-04-18T12:00:46.252Z,66.70
2019-04-18T12:03:46.565Z,60.60
2019-04-18T12:06:46.162Z,58.70
2019-04-18T12:09:28.304Z,63.40
2019-04-18T12:12:08.939Z,66.50
2019-04-18T12:14:49.402Z,68.10
2019-04-18T12:17:30.580Z,67.00
2019-04-18T12:20:10.105Z,69.30
2019-04-18T12:22:58.602Z,67.10
2019-04-18T12:34:29.145Z,68.50
2019-04-18T12:37:17.293Z,70.30
2019-04-18T12:40:05.593Z,63.50
2019-04-18T12:46:01.777Z,65.90
2019-04-18T12:57:32.019Z,69.80
2019-04-18T13:03:15.708Z,56.20
2019-04-18T13:06:04.053Z,58.30
2019-04-18T13:09:11.749Z,52.40
2019-04-18T13:15:24.654Z,56.80
2019-04-18T13:27:12.549Z,51.30
2019-04-18T13:30:00.680Z,52.80
2019-04-18T13:32:48.938Z,54.50
2019-04-18T13:35:30.188Z,51.00
2019-04-18T13:38:11.341Z,53.90
2019-04-18T13:40:52.585Z,54.80
2019-04-18T13:43:34.085Z,55.60
2019-04-18T13:46:14.478Z,57.60
2019-04-18T13:49:02.986Z,53.00
2019-04-18T13:51:52.740Z,53.90
2019-04-18T13:54:40.952Z,52.40
2019-04-18T14:00:22.635Z,57.30
2019-04-18T14:09:12.292Z,58.80
2019-04-18T14:20:41.950Z,51.80
2019-04-18T14:32:32.771Z,50.10
2019-04-18T14:35:01.414Z,50.20
2019-04-18T14:37:43.051Z,51.80
2019-04-18T14:40:23.785Z,50.90
2019-04-18T14:43:05.170Z,50.80
2019-04-18T14:45:46.485Z,52.00
2019-04-18T14:48:28.026Z,52.30
2019-04-18T14:51:08.646Z,51.10
2019-04-18T14:53:49.966Z,49.30
2019-04-18T14:56:31.242Z,49.50
2019-04-18T14:59:12.311Z,49.50
2019-04-18T15:01:54.574Z,48.80
2019-04-18T15:04:35.693Z,50.20
2019-04-18T15:07:15.475Z,51.40
2019-04-18T15:12:59.012Z,53.40
2019-04-18T15:15:47.348Z,52.50
2019-04-18T15:24:23.116Z,54.30
2019-04-18T15:27:02.582Z,53.10
2019-04-18T15:29:50.745Z,52.70
2019-04-18T15:38:26.970Z,52.00
2019-04-18T15:44:24.179Z,54.90
2019-04-18T15:47:31.342Z,54.00
2019-04-18T15:53:31.078Z,54.40
2019-04-18T15:56:18.434Z,52.90
2019-04-18T15:59:06.616Z,53.00
2019-04-18T16:10:35.259Z,53.70
2019-04-18T16:13:23.408Z,52.80
2019-04-18T16:16:11.529Z,52.10
2019-04-18T16:18:59.757Z,53.70
2019-04-18T16:21:47.969Z,53.70
2019-04-18T16:27:30.355Z,54.60
2019-04-18T16:39:44.843Z,59.40
2019-04-18T16:42:31.060Z,56.50
2019-04-18T16:45:15.725Z,56.00
2019-04-18T16:48:07.801Z,55.00
2019-04-18T16:50:55.115Z,55.10
2019-04-18T16:53:43.397Z,55.80
2019-04-18T16:56:33.261Z,56.10
2019-04-18T16:59:21.437Z,57.40
2019-04-18T17:02:09.724Z,57.50
2019-04-18T17:04:57.906Z,58.70
2019-04-18T17:13:26.561Z,58.70
2019-04-18T17:16:07.374Z,59.50
2019-04-18T17:18:48.134Z,58.50
2019-04-18T17:21:28.618Z,57.80
2019-04-18T17:24:09.204Z,57.50
2019-04-18T17:26:51.464Z,56.70
2019-04-18T17:29:35.667Z,57.20
2019-04-18T17:32:14.900Z,57.00
2019-04-18T17:35:08.637Z,57.30
2019-04-18T17:38:01.093Z,58.40
2019-04-18T17:40:31.455Z,57.80
2019-04-18T17:43:08.036Z,57.60
2019-04-18T17:45:46.051Z,57.40
2019-04-18T17:48:27.000Z,57.90
2019-04-18T17:51:15.043Z,57.40
2019-04-18T17:54:08.371Z,57.50
2019-04-18T17:56:39.659Z,58.00
2019-04-18T17:59:16.024Z,60.40
2019-04-18T18:02:00.746Z,58.10
2019-04-18T18:04:44.812Z,58.70
2019-04-18T18:07:27.244Z,58.80
2019-04-18T18:10:05.412Z,58.80
2019-04-18T18:12:46.263Z,57.90
2019-04-18T18:15:36.002Z,58.70
2019-04-18T18:18:11.102Z,58.00
2019-04-18T18:20:57.189Z,58.10
2019-04-18T18:23:34.369Z,58.20
2019-04-18T18:26:21.181Z,58.20
2019-04-18T18:29:01.881Z,58.30
2019-04-18T18:31:45.247Z,58.80
2019-04-18T18:34:40.494Z,58.30
2019-04-18T18:37:38.992Z,58.80
2019-04-18T18:40:14.245Z,59.10
2019-04-18T18:42:51.342Z,59.30
2019-04-18T18:45:33.070Z,59.10
2019-04-18T18:48:14.593Z,59.20
2019-04-18T18:50:56.164Z,59.40
2019-04-18T18:53:37.407Z,59.80
2019-04-18T18:56:20.707Z,60.30
2019-04-18T18:59:12.419Z,59.80
2019-04-18T19:02:05.747Z,60.40
2019-04-18T19:13:43.837Z,62.20
2019-04-18T19:16:28.550Z,60.80
2019-04-18T19:19:03.828Z,62.10
2019-04-18T19:21:58.257Z,62.30
2019-04-18T19:24:49.738Z,64.50
2019-04-18T19:27:41.731Z,65.10
2019-04-18T19:33:34.652Z,69.60
2019-04-18T19:36:21.433Z,71.50
2019-04-18T19:38:51.289Z,71.30
2019-04-18T19:41:19.937Z,71.80
2019-04-18T19:43:40.499Z,72.60
2019-04-18T19:46:06.661Z,74.10
2019-04-18T19:48:35.913Z,75.80
2019-04-18T19:51:05.616Z,76.10
2019-04-18T19:53:37.289Z,77.30
2019-04-18T19:56:11.569Z,77.90
2019-04-18T19:58:37.287Z,77.20
2019-04-18T20:01:06.780Z,78.80
2019-04-18T20:03:36.217Z,79.80
2019-04-18T20:06:17.783Z,81.30
2019-04-18T20:08:43.901Z,82.20
2019-04-18T20:11:14.991Z,87.10
2019-04-18T20:13:43.454Z,87.10
2019-04-18T20:16:09.640Z,91.20
2019-04-18T20:18:39.200Z,90.20
2019-04-18T20:21:09.747Z,90.70
2019-04-18T20:23:39.106Z,91.10
2019-04-18T20:26:08.176Z,92.30
2019-04-18T20:28:40.872Z,93.50
2019-04-18T20:31:13.474Z,93.40
2019-04-18T20:33:38.812Z,94.20
2019-04-18T20:36:31.136Z,93.60
2019-04-18T20:39:09.287Z,93.50
2019-04-18T20:41:48.112Z,93.30
2019-04-18T20:44:00.578Z,93.90
2019-04-18T20:49:07.009Z,96.60
2019-04-18T20:51:24.703Z,96.50
2019-04-18T20:54:06.142Z,97.60
2019-04-18T20:56:15.949Z,98.60
2019-04-18T20:58:46.226Z,98.50
2019-04-18T21:01:15.537Z,99.50
2019-04-18T21:03:46.036Z,98.90
2019-04-18T21:06:18.788Z,98.70
2019-04-18T21:08:58.198Z,98.00
2019-04-18T21:11:17.985Z,98.80
2019-04-18T21:13:47.168Z,99.50
2019-04-18T21:16:16.273Z,99.90
2019-04-18T21:18:48.558Z,99.90
2019-04-18T21:21:15.917Z,99.90
2019-04-18T21:23:44.953Z,99.90
2019-04-18T21:26:20.615Z,99.90
2019-04-18T21:28:46.322Z,99.90
2019-04-18T21:31:16.574Z,99.90
2019-04-18T21:33:46.117Z,99.90
2019-04-18T21:36:20.025Z,99.90
2019-04-18T21:38:52.621Z,99.90
2019-04-18T21:41:18.099Z,99.90
2019-04-18T21:43:55.968Z,99.90
2019-04-18T21:46:18.967Z,99.90
2019-04-18T21:48:54.241Z,99.90
2019-04-18T21:51:19.091Z,99.90
2019-04-18T21:53:54.795Z,99.90
2019-04-18T21:56:20.607Z,99.90
2019-04-18T21:59:00.840Z,99.90
2019-04-18T22:01:31.795Z,99.90
2019-04-18T22:03:58.291Z,99.90
2019-04-18T22:06:35.777Z,99.90
2019-04-18T22:09:03.631Z,99.90
2019-04-18T22:11:31.396Z,99.90
2019-04-18T22:14:00.588Z,99.90
2019-04-18T22:16:29.697Z,99.90
2019-04-18T22:18:59.493Z,99.90
2019-04-18T22:21:32.478Z,99.90
2019-04-18T22:24:00.718Z,99.90
2019-04-18T22:26:34.236Z,99.90
2019-04-18T22:29:00.885Z,99.90
2019-04-18T22:31:32.218Z,99.90
2019-04-18T22:34:00.868Z,99.90
2019-04-18T22:36:33.870Z,99.90
2019-04-18T22:39:00.945Z,99.90
2019-04-18T22:41:35.877Z,99.90
2019-04-18T22:44:01.520Z,99.90
2019-04-18T22:46:31.328Z,99.90
2019-04-18T22:49:00.592Z,99.90
2019-04-18T22:51:29.958Z,99.90
2019-04-18T22:54:00.890Z,99.90
2019-04-18T22:56:32.096Z,99.90
2019-04-18T22:59:05.159Z,99.90
2019-04-18T23:01:32.579Z,99.90
2019-04-18T23:04:05.404Z,99.90
2019-04-18T23:06:35.655Z,99.90
2019-04-18T23:09:08.940Z,99.90
2019-04-18T23:11:35.312Z,99.90
2019-04-18T23:14:09.879Z,99.90
2019-04-18T23:16:36.989Z,99.90
2019-04-18T23:19:08.676Z,99.90
2019-04-18T23:21:37.456Z,99.90
2019-04-18T23:24:08.330Z,99.90
2019-04-18T23:26:42.128Z,99.90
2019-04-18T23:29:10.905Z,99.90
2019-04-18T23:31:47.404Z,99.90
2019-04-18T23:34:11.165Z,99.90
2019-04-18T23:36:47.178Z,99.90
2019-04-18T23:39:18.206Z,99.90
2019-04-18T23:41:42.629Z,99.90
2019-04-18T23:44:16.354Z,99.90
2019-04-18T23:46:43.770Z,99.90
2019-04-18T23:49:20.000Z,99.90
2019-04-18T23:51:47.824Z,99.90
2019-04-18T23:54:24.269Z,99.90
2019-04-18T23:56:50.126Z,99.90
2019-04-18T23:59:21.494Z,99.90
